Theologos P . — SZNB — position and weather

sailwx.info

Track history (hours):
 
Tides and Currents Weather Stations Pressure Air Temp Water Temp Dewpoint Dewpoint Depression Visibility Wind Speed Wind Dir Waves Ship Positions

Theologos P .

Last reported at 2016-May-29 04:33 UTC. Time now 2016-May-29 05:49 UTC.
Position N 37°28' E 025°20'.

Length 118 m; draft 4.5 m.

Type: Passenger vessel. MMSI: 240521000.

Date/timePositionNaut miles runAvg speedWind from/ knotsBaromVisibWave heightAir tempDewpointWater temp
2016-May-29 04:33N 37°28' E 025°20'0 0.0
2016-May-29 03:33N 37°28' E 025°20'0 0.0
2016-May-29 02:33N 37°28' E 025°20'0 0.0
2016-May-29 01:33N 37°28' E 025°20'0 0.0
2016-May-29 00:33N 37°28' E 025°20'0 0.0
2016-May-28 23:33N 37°28' E 025°20'0 0.0
2016-May-28 22:33N 37°28' E 025°20'0 0.0
2016-May-28 21:33N 37°28' E 025°20'0 0.0
2016-May-28 20:33N 37°28' E 025°20'0 0.0
2016-May-28 19:33N 37°28' E 025°20'9 9.3
2016-May-28 18:34N 37°32' E 025°09'4614.5
2016-May-28 15:23N 37°57' E 024°20'14 7.7
2016-May-28 13:34N 38°01' E 024°03'4915.9
2016-May-28 10:30N 37°39' E 024°58'1314.0
2016-May-28 09:33N 37°31' E 025°11'8 7.5
2016-May-28 08:33N 37°28' E 025°20'0 0.0
2016-May-28 07:33N 37°28' E 025°20'0 0.0
2016-May-28 06:34N 37°28' E 025°20'0 0.0
2016-May-28 05:33N 37°28' E 025°20'0 0.0
2016-May-28 04:33N 37°28' E 025°20'0 0.0
2016-May-28 03:33N 37°28' E 025°20'0 0.0
2016-May-28 02:34N 37°28' E 025°20'0 0.0
2016-May-28 01:33N 37°28' E 025°20'0 0.0
2016-May-28 00:33N 37°28' E 025°20'0 0.0
2016-May-27 23:33N 37°28' E 025°20'0 0.0
2016-May-27 22:33N 37°28' E 025°20'0 0.0
2016-May-27 21:33N 37°28' E 025°20'0 0.0
2016-May-27 20:33N 37°28' E 025°20'1 0.8
2016-May-27 19:33N 37°28' E 025°19'1212.2
2016-May-27 18:33N 37°34' E 025°05'1918.7
2016-May-27 17:33N 37°47' E 024°49'9 8.4
2016-May-27 16:32N 37°52' E 024°39'1817.7
2016-May-27 15:31N 37°57' E 024°18'14 2.2
2016-May-27 09:09N 38°01' E 024°01'1119.2
2016-May-27 08:34N 37°58' E 024°15'3915.5
2016-May-27 06:05N 37°39' E 024°57'1019.1
2016-May-27 05:34N 37°33' E 025°07'1111.2
2016-May-27 04:34N 37°28' E 025°20'0 0.0
2016-May-27 03:33N 37°28' E 025°20'0 0.0
2016-May-27 02:33N 37°28' E 025°20'0 0.0
2016-May-27 01:33N 37°28' E 025°20'0 0.0
2016-May-27 00:33N 37°28' E 025°20'0 0.0
2016-May-26 23:34N 37°28' E 025°20'0 0.0
2016-May-26 22:33N 37°28' E 025°20'0 0.0
2016-May-26 21:33N 37°28' E 025°20'0 0.0
2016-May-26 20:33N 37°28' E 025°20'0 0.0
2016-May-26 19:33N 37°28' E 025°20'9 9.3
2016-May-26 18:33N 37°32' E 025°09'1716.7
2016-May-26 17:33N 37°43' E 024°53'1211.8
2016-May-26 16:31N 37°52' E 024°43'2318.3
2016-May-26 15:16N 37°58' E 024°15'12 1.9
2016-May-26 09:11N 38°01' E 024°01'1218.9
2016-May-26 08:33N 37°58' E 024°15'3314.8
2016-May-26 06:19N 37°43' E 024°53'1519.9
2016-May-26 05:33N 37°33' E 025°07'1111.2
2016-May-26 04:33N 37°28' E 025°20'0 0.0
2016-May-26 03:33N 37°28' E 025°20'0 0.0
2016-May-26 02:33N 37°28' E 025°20'0 0.0
2016-May-26 01:33N 37°28' E 025°20'0 0.0
2016-May-26 00:33N 37°28' E 025°20'0 0.0
2016-May-25 23:33N 37°28' E 025°20'0 0.0
2016-May-25 22:33N 37°28' E 025°20'0 0.0
2016-May-25 21:33N 37°28' E 025°20'0 0.0
2016-May-25 20:33N 37°28' E 025°20'0 0.1
2016-May-25 19:33N 37°28' E 025°20'1010.4
2016-May-25 18:33N 37°32' E 025°08'4715.1
2016-May-25 15:27N 37°57' E 024°18'14 2.3
2016-May-25 09:19N 38°01' E 024°01'1418.4
2016-May-25 08:34N 37°57' E 024°17'3215.1
2016-May-25 06:28N 37°42' E 024°53'1618.0
2016-May-25 05:33N 37°32' E 025°09'9 9.2
2016-May-25 04:33N 37°28' E 025°20'0 0.0
2016-May-25 03:33N 37°28' E 025°20'0 0.0
2016-May-25 02:33N 37°28' E 025°20'0 0.0
2016-May-25 01:33N 37°28' E 025°20'0 0.0
2016-May-25 00:33N 37°28' E 025°20'0 0.0
2016-May-24 23:33N 37°28' E 025°20'0 0.0
2016-May-24 22:33N 37°28' E 025°20'0 0.0
2016-May-24 21:33N 37°28' E 025°20'0 0.0
2016-May-24 20:33N 37°28' E 025°20'0 0.2
2016-May-24 19:33N 37°28' E 025°19'10 9.5
2016-May-24 18:33N 37°32' E 025°09'1818.3
2016-May-24 17:33N 37°44' E 024°51'1110.5
2016-May-24 16:33N 37°52' E 024°43'1918.6
2016-May-24 15:31N 37°57' E 024°19'15 2.3
2016-May-24 09:10N 38°01' E 024°01'1117.8
2016-May-24 08:33N 37°58' E 024°14'3715.8
2016-May-24 06:12N 37°41' E 024°56'1319.8
2016-May-24 05:33N 37°32' E 025°08'1110.5
2016-May-24 04:33N 37°28' E 025°20'0 0.0
2016-May-24 03:34N 37°28' E 025°20'0 0.0
2016-May-24 02:33N 37°28' E 025°20'0 0.0
2016-May-24 01:33N 37°28' E 025°20'0 0.0
2016-May-24 00:34N 37°28' E 025°20'0 0.0
2016-May-23 23:33N 37°28' E 025°20'0 0.0
2016-May-23 22:33N 37°28' E 025°20'0 0.0
2016-May-23 21:33N 37°28' E 025°20'0 0.0
2016-May-23 20:33N 37°28' E 025°20'0 0.0
2016-May-23 19:33N 37°28' E 025°20'9 9.3
2016-May-23 18:33N 37°32' E 025°09'1514.8
2016-May-23 17:33N 37°42' E 024°55'1412.9
2016-May-23 16:27N 37°52' E 024°43'1918.1
2016-May-23 15:24N 37°56' E 024°19'15 2.5
2016-May-23 09:15N 38°01' E 024°01'1217.4
2016-May-23 08:34N 37°58' E 024°15'3615.2
2016-May-23 06:10N 37°40' E 024°56'1219.1
2016-May-23 05:34N 37°33' E 025°07'1111.3
2016-May-23 04:33N 37°28' E 025°20'0 0.0
2016-May-23 03:34N 37°28' E 025°20'0 0.0
2016-May-23 02:34N 37°28' E 025°20'0 0.0
2016-May-23 01:34N 37°28' E 025°20'0 0.0
2016-May-23 00:34N 37°28' E 025°20'0 0.0
2016-May-22 23:34N 37°28' E 025°20'0 0.0
2016-May-22 22:34N 37°28' E 025°20'0 0.0
2016-May-22 21:33N 37°28' E 025°20'0 0.0
2016-May-22 20:34N 37°28' E 025°20'0 0.1
2016-May-22 19:34N 37°28' E 025°20'1312.5
2016-May-22 18:33N 37°33' E 025°05'2019.7
2016-May-22 17:33N 37°48' E 024°48'1612.9
2016-May-22 16:19N 37°54' E 024°30'1419.0
2016-May-22 15:33N 37°58' E 024°12'9 9.1
2016-May-22 14:31N 38°01' E 024°01'1717.8
2016-May-22 13:33N 37°55' E 024°21'2813.5
2016-May-22 11:29N 37°43' E 024°53'1718.4
2016-May-22 10:33N 37°32' E 025°09'9 9.3
2016-May-22 09:33N 37°28' E 025°20'0 0.0
2016-May-22 08:33N 37°28' E 025°20'0 0.0
2016-May-22 07:33N 37°28' E 025°20'0 0.0
2016-May-22 06:33N 37°28' E 025°20'0 0.0
2016-May-22 05:33N 37°28' E 025°20'0 0.0
2016-May-22 04:33N 37°28' E 025°20'0 0.0
2016-May-22 03:33N 37°28' E 025°20'0 0.0
2016-May-22 02:33N 37°28' E 025°20'0 0.0
2016-May-22 01:33N 37°28' E 025°20'0 0.0
2016-May-22 00:33N 37°28' E 025°20'0 0.0
2016-May-21 23:33N 37°28' E 025°20'0 0.0
2016-May-21 22:33N 37°28' E 025°20'0 0.0
2016-May-21 21:33N 37°28' E 025°20'0 0.0
2016-May-21 20:33N 37°28' E 025°20'0 0.0
2016-May-21 19:33N 37°28' E 025°20'9 9.3
2016-May-21 18:34N 37°32' E 025°09'1715.8
2016-May-21 17:29N 37°43' E 024°53'3314.8
2016-May-21 15:15N 37°58' E 024°15'10 6.1
2016-May-21 13:33N 38°01' E 024°03'4915.6
2016-May-21 10:24N 37°38' E 024°58'1113.1
2016-May-21 09:34N 37°32' E 025°09'9 9.0
2016-May-21 08:33N 37°28' E 025°20'0 0.0
2016-May-21 07:33N 37°28' E 025°20'0 0.0
2016-May-21 06:33N 37°28' E 025°20'0 0.0
2016-May-21 05:34N 37°28' E 025°20'0 0.0
2016-May-21 04:33N 37°28' E 025°20'0 0.0
2016-May-21 03:33N 37°28' E 025°20'0 0.0
2016-May-21 02:34N 37°28' E 025°20'0 0.0
2016-May-21 01:34N 37°28' E 025°20'0 0.0
2016-May-21 00:33N 37°28' E 025°20'0 0.0
2016-May-20 23:34N 37°28' E 025°20'0 0.0
2016-May-20 22:33N 37°28' E 025°20'0 0.0
2016-May-20 21:34N 37°28' E 025°20'0 0.0
2016-May-20 20:33N 37°28' E 025°20'0 0.0
2016-May-20 19:33N 37°28' E 025°20'9 9.2
2016-May-20 18:33N 37°32' E 025°09'1717.2
2016-May-20 17:33N 37°43' E 024°53'1211.6
2016-May-20 16:33N 37°52' E 024°43'1818.4
2016-May-20 15:33N 37°56' E 024°21'16 2.6
2016-May-20 09:11N 38°01' E 024°01'1117.7
2016-May-20 08:33N 37°57' E 024°14'3014.8
2016-May-20 06:34N 37°47' E 024°49'2019.9
2016-May-20 05:33N 37°33' E 025°07'1111.1
2016-May-20 04:33N 37°28' E 025°20'0 0.0
2016-May-20 03:33N 37°28' E 025°20'0 0.0
2016-May-20 02:33N 37°28' E 025°20'0 0.0
2016-May-20 01:33N 37°28' E 025°20'0 0.0
2016-May-20 00:33N 37°28' E 025°20'0 0.0
2016-May-19 23:33N 37°28' E 025°20'0 0.0
2016-May-19 22:33N 37°28' E 025°20'0 0.0
2016-May-19 21:33N 37°28' E 025°20'0 0.0
2016-May-19 20:33N 37°28' E 025°20'0 0.0
2016-May-19 19:33N 37°28' E 025°20'9 9.2
2016-May-19 18:33N 37°32' E 025°09'1716.7
2016-May-19 17:33N 37°43' E 024°53'1212.0
2016-May-19 16:33N 37°52' E 024°43'2018.2
2016-May-19 15:28N 37°57' E 024°19'15 2.4
2016-May-19 09:10N 38°01' E 024°01'1118.3
2016-May-19 08:33N 37°58' E 024°14'3415.5
2016-May-19 06:23N 37°43' E 024°53'1619.9
2016-May-19 05:34N 37°32' E 025°08'1010.0
2016-May-19 04:33N 37°28' E 025°20'  
Track history (hours):
 
Tides and Currents Weather Stations Pressure Air Temp Water Temp Dewpoint Dewpoint Depression Visibility Wind Speed Wind Dir Waves Ship Positions

Theologos P .

Last reported at 2016-May-29 04:33 UTC. Time now 2016-May-29 05:49 UTC.
Position N 37°28' E 025°20'.

Length 118 m; draft 4.5 m.

Type: Passenger vessel. MMSI: 240521000.

Date/timePositionNaut miles runAvg speedWind from/ knotsBaromVisibWave heightAir tempDewpointWater temp
2016-May-29 04:33N 37°28' E 025°20'0 0.0
2016-May-29 03:33N 37°28' E 025°20'0 0.0
2016-May-29 02:33N 37°28' E 025°20'0 0.0
2016-May-29 01:33N 37°28' E 025°20'0 0.0
2016-May-29 00:33N 37°28' E 025°20'0 0.0
2016-May-28 23:33N 37°28' E 025°20'0 0.0
2016-May-28 22:33N 37°28' E 025°20'0 0.0
2016-May-28 21:33N 37°28' E 025°20'0 0.0
2016-May-28 20:33N 37°28' E 025°20'0 0.0
2016-May-28 19:33N 37°28' E 025°20'9 9.3
2016-May-28 18:34N 37°32' E 025°09'4614.5
2016-May-28 15:23N 37°57' E 024°20'14 7.7
2016-May-28 13:34N 38°01' E 024°03'4915.9
2016-May-28 10:30N 37°39' E 024°58'1314.0
2016-May-28 09:33N 37°31' E 025°11'8 7.5
2016-May-28 08:33N 37°28' E 025°20'0 0.0
2016-May-28 07:33N 37°28' E 025°20'0 0.0
2016-May-28 06:34N 37°28' E 025°20'0 0.0
2016-May-28 05:33N 37°28' E 025°20'0 0.0
2016-May-28 04:33N 37°28' E 025°20'0 0.0
2016-May-28 03:33N 37°28' E 025°20'0 0.0
2016-May-28 02:34N 37°28' E 025°20'0 0.0
2016-May-28 01:33N 37°28' E 025°20'0 0.0
2016-May-28 00:33N 37°28' E 025°20'0 0.0
2016-May-27 23:33N 37°28' E 025°20'0 0.0
2016-May-27 22:33N 37°28' E 025°20'0 0.0
2016-May-27 21:33N 37°28' E 025°20'0 0.0
2016-May-27 20:33N 37°28' E 025°20'1 0.8
2016-May-27 19:33N 37°28' E 025°19'1212.2
2016-May-27 18:33N 37°34' E 025°05'1918.7
2016-May-27 17:33N 37°47' E 024°49'9 8.4
2016-May-27 16:32N 37°52' E 024°39'1817.7
2016-May-27 15:31N 37°57' E 024°18'14 2.2
2016-May-27 09:09N 38°01' E 024°01'1119.2
2016-May-27 08:34N 37°58' E 024°15'3915.5
2016-May-27 06:05N 37°39' E 024°57'1019.1
2016-May-27 05:34N 37°33' E 025°07'1111.2
2016-May-27 04:34N 37°28' E 025°20'0 0.0
2016-May-27 03:33N 37°28' E 025°20'0 0.0
2016-May-27 02:33N 37°28' E 025°20'0 0.0
2016-May-27 01:33N 37°28' E 025°20'0 0.0
2016-May-27 00:33N 37°28' E 025°20'0 0.0
2016-May-26 23:34N 37°28' E 025°20'0 0.0
2016-May-26 22:33N 37°28' E 025°20'0 0.0
2016-May-26 21:33N 37°28' E 025°20'0 0.0
2016-May-26 20:33N 37°28' E 025°20'0 0.0
2016-May-26 19:33N 37°28' E 025°20'9 9.3
2016-May-26 18:33N 37°32' E 025°09'1716.7
2016-May-26 17:33N 37°43' E 024°53'1211.8
2016-May-26 16:31N 37°52' E 024°43'2318.3
2016-May-26 15:16N 37°58' E 024°15'12 1.9
2016-May-26 09:11N 38°01' E 024°01'1218.9
2016-May-26 08:33N 37°58' E 024°15'3314.8
2016-May-26 06:19N 37°43' E 024°53'1519.9
2016-May-26 05:33N 37°33' E 025°07'1111.2
2016-May-26 04:33N 37°28' E 025°20'0 0.0
2016-May-26 03:33N 37°28' E 025°20'0 0.0
2016-May-26 02:33N 37°28' E 025°20'0 0.0
2016-May-26 01:33N 37°28' E 025°20'0 0.0
2016-May-26 00:33N 37°28' E 025°20'0 0.0
2016-May-25 23:33N 37°28' E 025°20'0 0.0
2016-May-25 22:33N 37°28' E 025°20'0 0.0
2016-May-25 21:33N 37°28' E 025°20'0 0.0
2016-May-25 20:33N 37°28' E 025°20'0 0.1
2016-May-25 19:33N 37°28' E 025°20'1010.4
2016-May-25 18:33N 37°32' E 025°08'4715.1
2016-May-25 15:27N 37°57' E 024°18'14 2.3
2016-May-25 09:19N 38°01' E 024°01'1418.4
2016-May-25 08:34N 37°57' E 024°17'3215.1
2016-May-25 06:28N 37°42' E 024°53'1618.0
2016-May-25 05:33N 37°32' E 025°09'9 9.2
2016-May-25 04:33N 37°28' E 025°20'0 0.0
2016-May-25 03:33N 37°28' E 025°20'0 0.0
2016-May-25 02:33N 37°28' E 025°20'0 0.0
2016-May-25 01:33N 37°28' E 025°20'0 0.0
2016-May-25 00:33N 37°28' E 025°20'0 0.0
2016-May-24 23:33N 37°28' E 025°20'0 0.0
2016-May-24 22:33N 37°28' E 025°20'0 0.0
2016-May-24 21:33N 37°28' E 025°20'0 0.0
2016-May-24 20:33N 37°28' E 025°20'0 0.2
2016-May-24 19:33N 37°28' E 025°19'10 9.5
2016-May-24 18:33N 37°32' E 025°09'1818.3
2016-May-24 17:33N 37°44' E 024°51'1110.5
2016-May-24 16:33N 37°52' E 024°43'1918.6
2016-May-24 15:31N 37°57' E 024°19'15 2.3
2016-May-24 09:10N 38°01' E 024°01'1117.8
2016-May-24 08:33N 37°58' E 024°14'3715.8
2016-May-24 06:12N 37°41' E 024°56'1319.8
2016-May-24 05:33N 37°32' E 025°08'1110.5
2016-May-24 04:33N 37°28' E 025°20'0 0.0
2016-May-24 03:34N 37°28' E 025°20'0 0.0
2016-May-24 02:33N 37°28' E 025°20'0 0.0
2016-May-24 01:33N 37°28' E 025°20'0 0.0
2016-May-24 00:34N 37°28' E 025°20'0 0.0
2016-May-23 23:33N 37°28' E 025°20'0 0.0
2016-May-23 22:33N 37°28' E 025°20'0 0.0
2016-May-23 21:33N 37°28' E 025°20'0 0.0
2016-May-23 20:33N 37°28' E 025°20'0 0.0
2016-May-23 19:33N 37°28' E 025°20'9 9.3
2016-May-23 18:33N 37°32' E 025°09'1514.8
2016-May-23 17:33N 37°42' E 024°55'1412.9
2016-May-23 16:27N 37°52' E 024°43'1918.1
2016-May-23 15:24N 37°56' E 024°19'15 2.5
2016-May-23 09:15N 38°01' E 024°01'1217.4
2016-May-23 08:34N 37°58' E 024°15'3615.2
2016-May-23 06:10N 37°40' E 024°56'1219.1
2016-May-23 05:34N 37°33' E 025°07'1111.3
2016-May-23 04:33N 37°28' E 025°20'0 0.0
2016-May-23 03:34N 37°28' E 025°20'0 0.0
2016-May-23 02:34N 37°28' E 025°20'0 0.0
2016-May-23 01:34N 37°28' E 025°20'0 0.0
2016-May-23 00:34N 37°28' E 025°20'0 0.0
2016-May-22 23:34N 37°28' E 025°20'0 0.0
2016-May-22 22:34N 37°28' E 025°20'0 0.0
2016-May-22 21:33N 37°28' E 025°20'0 0.0
2016-May-22 20:34N 37°28' E 025°20'0 0.1
2016-May-22 19:34N 37°28' E 025°20'1312.5
2016-May-22 18:33N 37°33' E 025°05'2019.7
2016-May-22 17:33N 37°48' E 024°48'1612.9
2016-May-22 16:19N 37°54' E 024°30'1419.0
2016-May-22 15:33N 37°58' E 024°12'9 9.1
2016-May-22 14:31N 38°01' E 024°01'1717.8
2016-May-22 13:33N 37°55' E 024°21'2813.5
2016-May-22 11:29N 37°43' E 024°53'1718.4
2016-May-22 10:33N 37°32' E 025°09'9 9.3
2016-May-22 09:33N 37°28' E 025°20'0 0.0
2016-May-22 08:33N 37°28' E 025°20'0 0.0
2016-May-22 07:33N 37°28' E 025°20'0 0.0
2016-May-22 06:33N 37°28' E 025°20'0 0.0
2016-May-22 05:33N 37°28' E 025°20'0 0.0
2016-May-22 04:33N 37°28' E 025°20'0 0.0
2016-May-22 03:33N 37°28' E 025°20'0 0.0
2016-May-22 02:33N 37°28' E 025°20'0 0.0
2016-May-22 01:33N 37°28' E 025°20'0 0.0
2016-May-22 00:33N 37°28' E 025°20'0 0.0
2016-May-21 23:33N 37°28' E 025°20'0 0.0
2016-May-21 22:33N 37°28' E 025°20'0 0.0
2016-May-21 21:33N 37°28' E 025°20'0 0.0
2016-May-21 20:33N 37°28' E 025°20'0 0.0
2016-May-21 19:33N 37°28' E 025°20'9 9.3
2016-May-21 18:34N 37°32' E 025°09'1715.8
2016-May-21 17:29N 37°43' E 024°53'3314.8
2016-May-21 15:15N 37°58' E 024°15'10 6.1
2016-May-21 13:33N 38°01' E 024°03'4915.6
2016-May-21 10:24N 37°38' E 024°58'1113.1
2016-May-21 09:34N 37°32' E 025°09'9 9.0
2016-May-21 08:33N 37°28' E 025°20'0 0.0
2016-May-21 07:33N 37°28' E 025°20'0 0.0
2016-May-21 06:33N 37°28' E 025°20'0 0.0
2016-May-21 05:34N 37°28' E 025°20'0 0.0
2016-May-21 04:33N 37°28' E 025°20'0 0.0
2016-May-21 03:33N 37°28' E 025°20'0 0.0
2016-May-21 02:34N 37°28' E 025°20'0 0.0
2016-May-21 01:34N 37°28' E 025°20'0 0.0
2016-May-21 00:33N 37°28' E 025°20'0 0.0
2016-May-20 23:34N 37°28' E 025°20'0 0.0
2016-May-20 22:33N 37°28' E 025°20'0 0.0
2016-May-20 21:34N 37°28' E 025°20'0 0.0
2016-May-20 20:33N 37°28' E 025°20'0 0.0
2016-May-20 19:33N 37°28' E 025°20'9 9.2
2016-May-20 18:33N 37°32' E 025°09'1717.2
2016-May-20 17:33N 37°43' E 024°53'1211.6
2016-May-20 16:33N 37°52' E 024°43'1818.4
2016-May-20 15:33N 37°56' E 024°21'16 2.6
2016-May-20 09:11N 38°01' E 024°01'1117.7
2016-May-20 08:33N 37°57' E 024°14'3014.8
2016-May-20 06:34N 37°47' E 024°49'2019.9
2016-May-20 05:33N 37°33' E 025°07'1111.1
2016-May-20 04:33N 37°28' E 025°20'0 0.0
2016-May-20 03:33N 37°28' E 025°20'0 0.0
2016-May-20 02:33N 37°28' E 025°20'0 0.0
2016-May-20 01:33N 37°28' E 025°20'0 0.0
2016-May-20 00:33N 37°28' E 025°20'0 0.0
2016-May-19 23:33N 37°28' E 025°20'0 0.0
2016-May-19 22:33N 37°28' E 025°20'0 0.0
2016-May-19 21:33N 37°28' E 025°20'0 0.0
2016-May-19 20:33N 37°28' E 025°20'0 0.0
2016-May-19 19:33N 37°28' E 025°20'9 9.2
2016-May-19 18:33N 37°32' E 025°09'1716.7
2016-May-19 17:33N 37°43' E 024°53'1212.0
2016-May-19 16:33N 37°52' E 024°43'2018.2
2016-May-19 15:28N 37°57' E 024°19'15 2.4
2016-May-19 09:10N 38°01' E 024°01'1118.3
2016-May-19 08:33N 37°58' E 024°14'3415.5
2016-May-19 06:23N 37°43' E 024°53'1619.9
2016-May-19 05:34N 37°32' E 025°08'1010.0
2016-May-19 04:33N 37°28' E 025°20'  

Dump ship's entire track history